sensor_id;sensor_type;location;lat;lon;timestamp;pressure;altitude;pressure_sealevel;temperature;humidity
75609;BME280;64194;51.044;13.780;2022-12-07T00:02:55;100181.66;;;3.90;76.47
75609;BME280;64194;51.044;13.780;2022-12-07T00:06:57;100182.91;;;3.80;76.43
75609;BME280;64194;51.044;13.780;2022-12-07T00:11:22;100187.13;;;3.84;76.69
75609;BME280;64194;51.044;13.780;2022-12-07T00:15:44;100177.66;;;3.80;76.63
75609;BME280;64194;51.044;13.780;2022-12-07T00:20:01;100176.09;;;3.74;76.05
75609;BME280;64194;51.044;13.780;2022-12-07T00:24:22;100168.00;;;3.81;75.66
75609;BME280;64194;51.044;13.780;2022-12-07T00:28:50;100168.22;;;3.74;75.76
75609;BME280;64194;51.044;13.780;2022-12-07T00:33:08;100159.72;;;3.66;76.42
75609;BME280;64194;51.044;13.780;2022-12-07T00:37:13;100160.06;;;3.57;76.24
75609;BME280;64194;51.044;13.780;2022-12-07T00:41:24;100161.00;;;3.55;76.92
75609;BME280;64194;51.044;13.780;2022-12-07T00:45:28;100157.41;;;3.59;76.65
75609;BME280;64194;51.044;13.780;2022-12-07T00:49:32;100155.06;;;3.50;76.63
75609;BME280;64194;51.044;13.780;2022-12-07T00:53:36;100153.97;;;3.57;76.42
75609;BME280;64194;51.044;13.780;2022-12-07T00:58:10;100149.72;;;3.53;76.48
75609;BME280;64194;51.044;13.780;2022-12-07T01:02:12;100155.47;;;3.64;76.29
75609;BME280;64194;51.044;13.780;2022-12-07T01:06:17;100145.91;;;3.61;76.46
75609;BME280;64194;51.044;13.780;2022-12-07T01:10:49;100141.44;;;3.65;75.92
75609;BME280;64194;51.044;13.780;2022-12-07T01:14:54;100153.00;;;3.59;76.23
75609;BME280;64194;51.044;13.780;2022-12-07T01:18:57;100148.63;;;3.60;76.49
75609;BME280;64194;51.044;13.780;2022-12-07T01:22:58;100146.91;;;3.59;76.51
75609;BME280;64194;51.044;13.780;2022-12-07T01:27:00;100142.16;;;3.68;76.24
75609;BME280;64194;51.044;13.780;2022-12-07T01:31:04;100144.19;;;3.60;76.50
75609;BME280;64194;51.044;13.780;2022-12-07T01:35:06;100148.53;;;3.61;76.12
75609;BME280;64194;51.044;13.780;2022-12-07T01:39:09;100143.41;;;3.58;76.26
75609;BME280;64194;51.044;13.780;2022-12-07T01:43:17;100144.44;;;3.54;76.20
75609;BME280;64194;51.044;13.780;2022-12-07T01:47:19;100143.56;;;3.54;76.19
75609;BME280;64194;51.044;13.780;2022-12-07T01:51:21;100133.75;;;3.59;77.24
75609;BME280;64194;51.044;13.780;2022-12-07T01:55:23;100142.59;;;3.56;76.28
75609;BME280;64194;51.044;13.780;2022-12-07T01:59:25;100152.22;;;3.56;76.49
75609;BME280;64194;51.044;13.780;2022-12-07T02:03:32;100140.34;;;3.46;76.92
75609;BME280;64194;51.044;13.780;2022-12-07T02:07:36;100152.69;;;3.44;76.68
75609;BME280;64194;51.044;13.780;2022-12-07T02:11:39;100144.00;;;3.42;77.13
75609;BME280;64194;51.044;13.780;2022-12-07T02:15:55;100140.47;;;3.43;77.09
75609;BME280;64194;51.044;13.780;2022-12-07T02:24:44;100132.19;;;3.28;77.17
75609;BME280;64194;51.044;13.780;2022-12-07T02:33:19;100131.91;;;3.11;77.42
75609;BME280;64194;51.044;13.780;2022-12-07T02:37:51;100132.13;;;3.05;77.23
75609;BME280;64194;51.044;13.780;2022-12-07T02:42:02;100131.75;;;2.89;77.66
75609;BME280;64194;51.044;13.780;2022-12-07T02:46:13;100121.63;;;2.79;78.10
75609;BME280;64194;51.044;13.780;2022-12-07T02:50:18;100121.00;;;2.72;79.16
75609;BME280;64194;51.044;13.780;2022-12-07T02:54:21;100116.50;;;2.76;78.38
75609;BME280;64194;51.044;13.780;2022-12-07T02:58:37;100113.81;;;2.77;78.38
75609;BME280;64194;51.044;13.780;2022-12-07T03:02:58;100103.41;;;2.74;78.22
75609;BME280;64194;51.044;13.780;2022-12-07T03:11:42;100096.06;;;2.85;77.52
75609;BME280;64194;51.044;13.780;2022-12-07T03:15:53;100102.09;;;2.89;77.66
75609;BME280;64194;51.044;13.780;2022-12-07T03:20:00;100098.63;;;2.87;77.58
75609;BME280;64194;51.044;13.780;2022-12-07T03:24:08;100091.59;;;2.89;77.53
75609;BME280;64194;51.044;13.780;2022-12-07T03:28:12;100086.22;;;2.92;77.36
75609;BME280;64194;51.044;13.780;2022-12-07T03:32:26;100073.56;;;2.78;78.28
75609;BME280;64194;51.044;13.780;2022-12-07T03:36:44;100073.84;;;2.71;77.85
75609;BME280;64194;51.044;13.780;2022-12-07T03:40:54;100081.59;;;2.74;78.01
75609;BME280;64194;51.044;13.780;2022-12-07T03:45:01;100074.13;;;2.88;77.55
75609;BME280;64194;51.044;13.780;2022-12-07T03:49:25;100072.00;;;2.99;76.38
75609;BME280;64194;51.044;13.780;2022-12-07T03:57:39;100066.88;;;2.70;76.84
75609;BME280;64194;51.044;13.780;2022-12-07T04:01:44;100075.78;;;2.64;76.94
75609;BME280;64194;51.044;13.780;2022-12-07T04:05:45;100071.75;;;2.54;77.55
75609;BME280;64194;51.044;13.780;2022-12-07T04:09:47;100071.09;;;2.47;77.36
75609;BME280;64194;51.044;13.780;2022-12-07T04:13:49;100068.59;;;2.44;77.64
75609;BME280;64194;51.044;13.780;2022-12-07T04:18:08;100047.31;;;2.53;77.22
75609;BME280;64194;51.044;13.780;2022-12-07T04:22:10;100052.34;;;2.60;76.47
75609;BME280;64194;51.044;13.780;2022-12-07T04:26:12;100049.97;;;2.52;76.30
75609;BME280;64194;51.044;13.780;2022-12-07T04:30:13;100046.41;;;2.55;76.06
75609;BME280;64194;51.044;13.780;2022-12-07T04:34:16;100048.41;;;2.46;76.05
75609;BME280;64194;51.044;13.780;2022-12-07T04:38:17;100042.66;;;2.35;76.14
75609;BME280;64194;51.044;13.780;2022-12-07T04:42:19;100034.28;;;2.24;76.81
75609;BME280;64194;51.044;13.780;2022-12-07T04:46:22;100024.09;;;2.15;77.21
75609;BME280;64194;51.044;13.780;2022-12-07T04:50:25;100014.63;;;2.11;76.68
75609;BME280;64194;51.044;13.780;2022-12-07T04:54:26;100005.19;;;2.05;76.77
75609;BME280;64194;51.044;13.780;2022-12-07T04:58:32;100003.94;;;1.91;78.00
75609;BME280;64194;51.044;13.780;2022-12-07T05:02:39;100006.09;;;1.77;78.31
75609;BME280;64194;51.044;13.780;2022-12-07T05:06:41;100002.88;;;1.68;78.76
75609;BME280;64194;51.044;13.780;2022-12-07T05:10:44;99992.41;;;1.68;79.07
75609;BME280;64194;51.044;13.780;2022-12-07T05:14:45;99986.22;;;1.69;78.32
75609;BME280;64194;51.044;13.780;2022-12-07T05:18:47;99987.91;;;1.72;78.56
75609;BME280;64194;51.044;13.780;2022-12-07T05:22:49;99993.31;;;1.66;78.78
75609;BME280;64194;51.044;13.780;2022-12-07T05:26:50;99986.47;;;1.62;79.05
75609;BME280;64194;51.044;13.780;2022-12-07T05:30:52;99989.84;;;1.65;79.69
75609;BME280;64194;51.044;13.780;2022-12-07T05:35:00;99990.31;;;1.80;79.03
75609;BME280;64194;51.044;13.780;2022-12-07T05:39:02;99987.03;;;2.01;78.38
75609;BME280;64194;51.044;13.780;2022-12-07T05:43:13;99976.88;;;2.18;78.01
75609;BME280;64194;51.044;13.780;2022-12-07T05:47:26;99977.34;;;2.29;78.21
75609;BME280;64194;51.044;13.780;2022-12-07T05:51:28;99964.16;;;2.32;77.67
75609;BME280;64194;51.044;13.780;2022-12-07T05:55:30;99958.91;;;2.32;77.62
75609;BME280;64194;51.044;13.780;2022-12-07T05:59:32;99961.34;;;2.38;77.03
75609;BME280;64194;51.044;13.780;2022-12-07T06:03:34;99954.16;;;2.43;76.50
75609;BME280;64194;51.044;13.780;2022-12-07T06:07:36;99959.22;;;2.49;76.04
75609;BME280;64194;51.044;13.780;2022-12-07T06:11:39;99950.97;;;2.60;75.53
75609;BME280;64194;51.044;13.780;2022-12-07T06:15:59;99950.38;;;2.77;74.10
75609;BME280;64194;51.044;13.780;2022-12-07T06:20:02;99943.25;;;2.80;73.13
75609;BME280;64194;51.044;13.780;2022-12-07T06:24:05;99938.06;;;2.79;73.00
75609;BME280;64194;51.044;13.780;2022-12-07T06:28:07;99933.75;;;2.78;73.06
75609;BME280;64194;51.044;13.780;2022-12-07T06:32:08;99931.34;;;2.72;73.14
75609;BME280;64194;51.044;13.780;2022-12-07T06:36:11;99939.56;;;2.86;73.19
75609;BME280;64194;51.044;13.780;2022-12-07T06:40:13;99944.25;;;3.01;72.34
75609;BME280;64194;51.044;13.780;2022-12-07T06:44:15;99943.09;;;3.10;72.53
75609;BME280;64194;51.044;13.780;2022-12-07T06:48:19;99941.66;;;3.24;72.63
75609;BME280;64194;51.044;13.780;2022-12-07T06:52:24;99942.84;;;3.16;72.79
75609;BME280;64194;51.044;13.780;2022-12-07T06:56:25;99942.59;;;3.22;73.68
75609;BME280;64194;51.044;13.780;2022-12-07T07:00:28;99942.34;;;3.29;73.70
75609;BME280;64194;51.044;13.780;2022-12-07T07:04:29;99934.91;;;3.17;74.84
75609;BME280;64194;51.044;13.780;2022-12-07T07:08:31;99933.28;;;3.15;75.36
75609;BME280;64194;51.044;13.780;2022-12-07T07:12:33;99940.16;;;3.17;77.15
75609;BME280;64194;51.044;13.780;2022-12-07T07:16:34;99941.94;;;2.93;78.35
75609;BME280;64194;51.044;13.780;2022-12-07T07:20:37;99938.78;;;3.07;79.40
75609;BME280;64194;51.044;13.780;2022-12-07T07:24:39;99952.69;;;2.86;81.95
75609;BME280;64194;51.044;13.780;2022-12-07T07:28:44;99954.34;;;2.64;82.71
75609;BME280;64194;51.044;13.780;2022-12-07T07:32:59;99956.44;;;2.54;83.53
75609;BME280;64194;51.044;13.780;2022-12-07T07:37:01;99951.22;;;2.52;83.25
75609;BME280;64194;51.044;13.780;2022-12-07T07:41:02;99952.75;;;2.60;83.19
75609;BME280;64194;51.044;13.780;2022-12-07T07:45:05;99960.56;;;2.61;82.99
75609;BME280;64194;51.044;13.780;2022-12-07T07:49:09;99947.94;;;2.72;82.90
75609;BME280;64194;51.044;13.780;2022-12-07T07:58:51;99960.59;;;3.09;81.11
75609;BME280;64194;51.044;13.780;2022-12-07T08:02:53;99956.03;;;3.14;81.01
75609;BME280;64194;51.044;13.780;2022-12-07T08:06:56;99964.44;;;3.22;80.21
75609;BME280;64194;51.044;13.780;2022-12-07T08:16:55;99966.69;;;3.33;79.82
75609;BME280;64194;51.044;13.780;2022-12-07T08:21:00;99957.63;;;3.65;78.57
75609;BME280;64194;51.044;13.780;2022-12-07T08:25:02;99958.16;;;3.73;78.20
75609;BME280;64194;51.044;13.780;2022-12-07T08:29:04;99947.84;;;3.90;77.31
75609;BME280;64194;51.044;13.780;2022-12-07T08:38:17;99949.31;;;4.19;76.08
75609;BME280;64194;51.044;13.780;2022-12-07T08:42:20;99961.63;;;4.39;74.90
75609;BME280;64194;51.044;13.780;2022-12-07T08:46:28;99962.66;;;4.35;75.39
75609;BME280;64194;51.044;13.780;2022-12-07T08:50:36;99958.13;;;4.58;73.90
75609;BME280;64194;51.044;13.780;2022-12-07T08:54:39;99955.56;;;5.18;71.75
75609;BME280;64194;51.044;13.780;2022-12-07T08:58:44;99953.09;;;6.77;67.21
75609;BME280;64194;51.044;13.780;2022-12-07T09:02:51;99953.09;;;5.89;67.71
75609;BME280;64194;51.044;13.780;2022-12-07T09:06:55;99962.41;;;5.59;69.56
75609;BME280;64194;51.044;13.780;2022-12-07T09:10:57;99964.59;;;5.68;69.71
75609;BME280;64194;51.044;13.780;2022-12-07T09:14:59;99963.63;;;5.33;70.90
75609;BME280;64194;51.044;13.780;2022-12-07T09:19:02;99962.94;;;5.67;68.72
75609;BME280;64194;51.044;13.780;2022-12-07T09:23:07;99960.34;;;5.47;69.83
75609;BME280;64194;51.044;13.780;2022-12-07T09:27:09;99954.81;;;5.91;68.10
75609;BME280;64194;51.044;13.780;2022-12-07T09:31:11;99950.59;;;7.41;63.36
75609;BME280;64194;51.044;13.780;2022-12-07T09:35:25;99962.53;;;8.43;60.16
75609;BME280;64194;51.044;13.780;2022-12-07T09:39:27;99959.41;;;7.57;62.19
75609;BME280;64194;51.044;13.780;2022-12-07T09:43:29;99959.22;;;6.95;64.78
75609;BME280;64194;51.044;13.780;2022-12-07T09:47:32;99960.78;;;6.99;63.97
75609;BME280;64194;51.044;13.780;2022-12-07T09:56:13;99967.66;;;7.51;62.62
75609;BME280;64194;51.044;13.780;2022-12-07T10:00:18;99952.84;;;8.87;58.20
75609;BME280;64194;51.044;13.780;2022-12-07T10:04:33;99940.75;;;11.26;51.50
75609;BME280;64194;51.044;13.780;2022-12-07T10:08:36;99937.81;;;11.18;50.00
75609;BME280;64194;51.044;13.780;2022-12-07T10:13:13;99934.34;;;12.03;48.71
75609;BME280;64194;51.044;13.780;2022-12-07T10:30:56;99923.63;;;14.62;42.00
75609;BME280;64194;51.044;13.780;2022-12-07T10:35:24;99927.19;;;12.86;45.03
75609;BME280;64194;51.044;13.780;2022-12-07T10:39:27;99926.09;;;11.33;49.20
75609;BME280;64194;51.044;13.780;2022-12-07T10:43:29;99931.06;;;9.67;53.43
75609;BME280;64194;51.044;13.780;2022-12-07T10:47:36;99927.09;;;8.75;56.37
75609;BME280;64194;51.044;13.780;2022-12-07T11:00:25;99921.44;;;7.58;61.98
75609;BME280;64194;51.044;13.780;2022-12-07T11:18:48;99899.81;;;7.36;63.29
75609;BME280;64194;51.044;13.780;2022-12-07T11:27:19;99897.63;;;7.27;63.05
75609;BME280;64194;51.044;13.780;2022-12-07T11:36:00;99890.63;;;6.78;64.60
75609;BME280;64194;51.044;13.780;2022-12-07T11:49:50;99904.22;;;5.82;72.90
75609;BME280;64194;51.044;13.780;2022-12-07T11:53:59;99897.69;;;5.72;72.88
75609;BME280;64194;51.044;13.780;2022-12-07T12:03:07;99887.78;;;5.77;71.80
75609;BME280;64194;51.044;13.780;2022-12-07T12:07:37;99885.84;;;5.81;72.42
75609;BME280;64194;51.044;13.780;2022-12-07T12:12:39;99889.06;;;5.87;73.36
75609;BME280;64194;51.044;13.780;2022-12-07T12:21:49;99864.81;;;8.39;63.69
75609;BME280;64194;51.044;13.780;2022-12-07T12:26:24;99863.00;;;8.10;63.65
75609;BME280;64194;51.044;13.780;2022-12-07T12:35:33;99875.75;;;7.25;67.37
75609;BME280;64194;51.044;13.780;2022-12-07T12:39:35;99872.06;;;6.79;69.07
75609;BME280;64194;51.044;13.780;2022-12-07T12:43:48;99883.38;;;6.31;69.58
75609;BME280;64194;51.044;13.780;2022-12-07T12:48:01;99878.13;;;5.95;70.36
75609;BME280;64194;51.044;13.780;2022-12-07T13:14:58;99878.13;;;4.44;80.45
75609;BME280;64194;51.044;13.780;2022-12-07T13:19:00;99889.78;;;4.38;79.69
75609;BME280;64194;51.044;13.780;2022-12-07T13:23:08;99872.22;;;4.39;79.16
75609;BME280;64194;51.044;13.780;2022-12-07T13:27:11;99873.16;;;4.38;78.63
75609;BME280;64194;51.044;13.780;2022-12-07T13:35:29;99874.41;;;4.49;78.65
75609;BME280;64194;51.044;13.780;2022-12-07T13:39:34;99879.66;;;4.49;78.98
75609;BME280;64194;51.044;13.780;2022-12-07T13:44:14;99875.66;;;4.41;80.34
75609;BME280;64194;51.044;13.780;2022-12-07T13:48:41;99878.56;;;4.35;82.93
75609;BME280;64194;51.044;13.780;2022-12-07T13:52:59;99882.09;;;4.13;84.67
75609;BME280;64194;51.044;13.780;2022-12-07T13:57:01;99875.63;;;4.00;84.91
75609;BME280;64194;51.044;13.780;2022-12-07T14:01:04;99875.41;;;4.05;85.59
75609;BME280;64194;51.044;13.780;2022-12-07T14:05:27;99871.94;;;4.04;83.14
75609;BME280;64194;51.044;13.780;2022-12-07T14:09:55;99877.59;;;4.15;82.89
75609;BME280;64194;51.044;13.780;2022-12-07T14:14:02;99879.06;;;4.43;80.91
75609;BME280;64194;51.044;13.780;2022-12-07T14:19:54;99871.81;;;4.48;79.31
75609;BME280;64194;51.044;13.780;2022-12-07T14:23:32;99878.94;;;4.46;80.21
75609;BME280;64194;51.044;13.780;2022-12-07T14:27:34;99873.81;;;4.63;79.77
75609;BME280;64194;51.044;13.780;2022-12-07T14:31:39;99865.78;;;4.66;79.08
75609;BME280;64194;51.044;13.780;2022-12-07T14:35:41;99861.38;;;4.67;78.75
75609;BME280;64194;51.044;13.780;2022-12-07T14:39:45;99867.34;;;4.70;78.61
75609;BME280;64194;51.044;13.780;2022-12-07T14:43:47;99858.53;;;4.71;78.49
75609;BME280;64194;51.044;13.780;2022-12-07T14:48:32;99857.66;;;4.91;78.09
75609;BME280;64194;51.044;13.780;2022-12-07T14:53:10;99847.91;;;4.93;77.86
75609;BME280;64194;51.044;13.780;2022-12-07T14:57:31;99856.16;;;4.85;77.39
75609;BME280;64194;51.044;13.780;2022-12-07T15:01:35;99857.47;;;4.75;78.03
75609;BME280;64194;51.044;13.780;2022-12-07T15:05:37;99864.00;;;4.67;78.04
75609;BME280;64194;51.044;13.780;2022-12-07T15:10:01;99863.94;;;4.68;76.42
75609;BME280;64194;51.044;13.780;2022-12-07T15:14:23;99852.28;;;4.74;76.82
75609;BME280;64194;51.044;13.780;2022-12-07T15:18:25;99860.94;;;4.76;76.17
75609;BME280;64194;51.044;13.780;2022-12-07T15:22:26;99858.56;;;4.90;76.03
75609;BME280;64194;51.044;13.780;2022-12-07T15:26:28;99862.97;;;4.89;74.76
75609;BME280;64194;51.044;13.780;2022-12-07T15:30:30;99862.19;;;4.87;74.69
75609;BME280;64194;51.044;13.780;2022-12-07T15:34:52;99862.53;;;4.98;74.70
75609;BME280;64194;51.044;13.780;2022-12-07T15:38:57;99857.56;;;4.92;73.44
75609;BME280;64194;51.044;13.780;2022-12-07T15:43:22;99865.34;;;4.95;73.22
75609;BME280;64194;51.044;13.780;2022-12-07T15:47:43;99865.97;;;5.00;73.00
75609;BME280;64194;51.044;13.780;2022-12-07T15:52:07;99859.78;;;5.01;72.43
75609;BME280;64194;51.044;13.780;2022-12-07T15:56:09;99860.56;;;5.03;72.64
75609;BME280;64194;51.044;13.780;2022-12-07T16:00:12;99869.38;;;5.02;73.70
75609;BME280;64194;51.044;13.780;2022-12-07T16:04:19;99860.72;;;5.00;72.74
75609;BME280;64194;51.044;13.780;2022-12-07T16:08:20;99867.69;;;5.01;73.48
75609;BME280;64194;51.044;13.780;2022-12-07T16:12:49;99867.81;;;4.98;73.43
75609;BME280;64194;51.044;13.780;2022-12-07T16:16:51;99862.28;;;5.04;73.48
75609;BME280;64194;51.044;13.780;2022-12-07T16:20:53;99866.75;;;5.02;73.40
75609;BME280;64194;51.044;13.780;2022-12-07T16:24:56;99867.53;;;5.04;73.07
75609;BME280;64194;51.044;13.780;2022-12-07T16:28:58;99865.97;;;5.00;73.15
75609;BME280;64194;51.044;13.780;2022-12-07T16:33:00;99876.72;;;4.96;73.50
75609;BME280;64194;51.044;13.780;2022-12-07T16:37:03;99871.63;;;4.91;73.27
75609;BME280;64194;51.044;13.780;2022-12-07T16:41:25;99864.81;;;4.87;72.90
75609;BME280;64194;51.044;13.780;2022-12-07T16:45:27;99863.25;;;4.83;73.79
75609;BME280;64194;51.044;13.780;2022-12-07T16:49:29;99866.69;;;4.85;73.52
75609;BME280;64194;51.044;13.780;2022-12-07T16:53:31;99864.09;;;4.84;72.86
75609;BME280;64194;51.044;13.780;2022-12-07T16:57:33;99876.63;;;4.79;72.70
75609;BME280;64194;51.044;13.780;2022-12-07T17:01:35;99866.78;;;4.82;72.40
75609;BME280;64194;51.044;13.780;2022-12-07T17:05:57;99866.69;;;4.85;71.54
75609;BME280;64194;51.044;13.780;2022-12-07T17:09:59;99870.59;;;4.95;71.72
75609;BME280;64194;51.044;13.780;2022-12-07T17:14:01;99872.81;;;5.04;70.91
75609;BME280;64194;51.044;13.780;2022-12-07T17:18:41;99874.16;;;4.94;70.81
75609;BME280;64194;51.044;13.780;2022-12-07T17:22:46;99869.66;;;4.96;69.81
75609;BME280;64194;51.044;13.780;2022-12-07T17:27:08;99870.59;;;4.95;70.16
75609;BME280;64194;51.044;13.780;2022-12-07T17:31:24;99871.78;;;4.88;70.15
75609;BME280;64194;51.044;13.780;2022-12-07T17:35:56;99862.81;;;4.74;70.78
75609;BME280;64194;51.044;13.780;2022-12-07T17:40:01;99868.47;;;4.64;72.03
75609;BME280;64194;51.044;13.780;2022-12-07T17:44:05;99869.59;;;4.59;72.13
75609;BME280;64194;51.044;13.780;2022-12-07T17:48:25;99872.22;;;4.59;72.06
75609;BME280;64194;51.044;13.780;2022-12-07T17:52:47;99872.81;;;4.66;72.01
75609;BME280;64194;51.044;13.780;2022-12-07T17:57:07;99872.47;;;4.73;72.64
75609;BME280;64194;51.044;13.780;2022-12-07T18:01:29;99867.28;;;4.72;71.72
75609;BME280;64194;51.044;13.780;2022-12-07T18:05:59;99873.34;;;4.74;72.18
75609;BME280;64194;51.044;13.780;2022-12-07T18:10:20;99868.19;;;4.71;71.73
75609;BME280;64194;51.044;13.780;2022-12-07T18:14:22;99872.59;;;4.70;72.45
75609;BME280;64194;51.044;13.780;2022-12-07T18:18:24;99879.72;;;4.68;72.59
75609;BME280;64194;51.044;13.780;2022-12-07T18:22:25;99889.66;;;4.61;71.93
75609;BME280;64194;51.044;13.780;2022-12-07T18:26:35;99888.13;;;4.56;72.81
75609;BME280;64194;51.044;13.780;2022-12-07T18:30:40;99882.81;;;4.57;72.55
75609;BME280;64194;51.044;13.780;2022-12-07T18:35:24;99881.31;;;4.52;73.07
75609;BME280;64194;51.044;13.780;2022-12-07T18:39:26;99888.31;;;4.31;73.36
75609;BME280;64194;51.044;13.780;2022-12-07T18:43:34;99885.84;;;4.69;74.60
75609;BME280;64194;51.044;13.780;2022-12-07T18:47:42;99884.53;;;4.38;72.52
75609;BME280;64194;51.044;13.780;2022-12-07T18:51:44;99884.38;;;4.21;72.48
75609;BME280;64194;51.044;13.780;2022-12-07T18:55:45;99891.13;;;4.06;72.14
75609;BME280;64194;51.044;13.780;2022-12-07T18:59:47;99889.81;;;3.96;71.90
75609;BME280;64194;51.044;13.780;2022-12-07T19:03:50;99879.94;;;3.81;72.56
75609;BME280;64194;51.044;13.780;2022-12-07T19:08:12;99883.09;;;3.89;73.03
75609;BME280;64194;51.044;13.780;2022-12-07T19:12:14;99890.28;;;4.06;75.97
75609;BME280;64194;51.044;13.780;2022-12-07T19:17:00;99887.84;;;4.01;72.68
75609;BME280;64194;51.044;13.780;2022-12-07T19:21:18;99885.56;;;4.14;75.17
75609;BME280;64194;51.044;13.780;2022-12-07T19:25:40;99887.00;;;4.21;72.52
75609;BME280;64194;51.044;13.780;2022-12-07T19:29:46;99874.47;;;4.28;71.87
75609;BME280;64194;51.044;13.780;2022-12-07T19:34:18;99887.84;;;4.01;72.63
75609;BME280;64194;51.044;13.780;2022-12-07T19:38:20;99874.84;;;3.76;73.61
75609;BME280;64194;51.044;13.780;2022-12-07T19:42:22;99883.16;;;3.66;74.28
75609;BME280;64194;51.044;13.780;2022-12-07T19:46:24;99876.75;;;3.73;75.13
75609;BME280;64194;51.044;13.780;2022-12-07T19:50:25;99880.16;;;3.75;74.44
75609;BME280;64194;51.044;13.780;2022-12-07T19:54:29;99879.13;;;3.79;74.21
75609;BME280;64194;51.044;13.780;2022-12-07T19:58:31;99873.91;;;3.99;73.94
75609;BME280;64194;51.044;13.780;2022-12-07T20:02:35;99871.03;;;4.26;73.44
75609;BME280;64194;51.044;13.780;2022-12-07T20:07:01;99859.22;;;4.15;73.18
75609;BME280;64194;51.044;13.780;2022-12-07T20:11:03;99860.81;;;4.19;75.93
75609;BME280;64194;51.044;13.780;2022-12-07T20:15:25;99855.00;;;4.32;74.78
75609;BME280;64194;51.044;13.780;2022-12-07T20:19:27;99863.53;;;4.16;72.34
75609;BME280;64194;51.044;13.780;2022-12-07T20:23:29;99863.81;;;4.10;72.65
75609;BME280;64194;51.044;13.780;2022-12-07T20:27:30;99858.03;;;4.02;72.45
75609;BME280;64194;51.044;13.780;2022-12-07T20:31:35;99864.72;;;4.09;73.03
75609;BME280;64194;51.044;13.780;2022-12-07T20:36:03;99858.34;;;4.15;76.04
75609;BME280;64194;51.044;13.780;2022-12-07T20:40:22;99857.91;;;4.46;71.89
75609;BME280;64194;51.044;13.780;2022-12-07T20:44:25;99857.75;;;4.49;73.94
75609;BME280;64194;51.044;13.780;2022-12-07T20:48:27;99847.13;;;4.11;73.03
75609;BME280;64194;51.044;13.780;2022-12-07T20:52:29;99848.94;;;4.09;72.60
75609;BME280;64194;51.044;13.780;2022-12-07T20:56:51;99847.47;;;4.24;78.51
75609;BME280;64194;51.044;13.780;2022-12-07T21:01:16;99852.38;;;4.11;71.98
75609;BME280;64194;51.044;13.780;2022-12-07T21:05:17;99848.91;;;4.11;72.42
75609;BME280;64194;51.044;13.780;2022-12-07T21:09:19;99844.75;;;4.05;72.44
75609;BME280;64194;51.044;13.780;2022-12-07T21:13:43;99855.75;;;3.93;72.73
75609;BME280;64194;51.044;13.780;2022-12-07T21:17:44;99852.25;;;4.14;76.33
75609;BME280;64194;51.044;13.780;2022-12-07T21:21:46;99851.47;;;4.12;76.56
75609;BME280;64194;51.044;13.780;2022-12-07T21:25:50;99848.19;;;4.07;73.69
75609;BME280;64194;51.044;13.780;2022-12-07T21:29:52;99851.97;;;4.20;71.91
75609;BME280;64194;51.044;13.780;2022-12-07T21:33:54;99856.81;;;3.89;72.11
75609;BME280;64194;51.044;13.780;2022-12-07T21:37:58;99852.56;;;3.65;72.93
75609;BME280;64194;51.044;13.780;2022-12-07T21:42:00;99847.44;;;3.62;73.78
75609;BME280;64194;51.044;13.780;2022-12-07T21:46:24;99850.50;;;3.51;73.83
75609;BME280;64194;51.044;13.780;2022-12-07T21:56:16;99843.53;;;3.50;73.74
75609;BME280;64194;51.044;13.780;2022-12-07T22:00:19;99839.03;;;3.54;73.55
75609;BME280;64194;51.044;13.780;2022-12-07T22:04:24;99838.16;;;3.53;73.45
75609;BME280;64194;51.044;13.780;2022-12-07T22:08:27;99833.69;;;3.55;73.11
75609;BME280;64194;51.044;13.780;2022-12-07T22:12:28;99839.03;;;3.54;73.36
75609;BME280;64194;51.044;13.780;2022-12-07T22:16:31;99847.88;;;3.51;73.76
75609;BME280;64194;51.044;13.780;2022-12-07T22:30:24;99850.09;;;3.60;73.45
75609;BME280;64194;51.044;13.780;2022-12-07T22:34:27;99846.47;;;3.64;72.87
75609;BME280;64194;51.044;13.780;2022-12-07T22:48:13;99827.44;;;3.79;72.22
75609;BME280;64194;51.044;13.780;2022-12-07T22:52:15;99827.91;;;3.89;71.95
75609;BME280;64194;51.044;13.780;2022-12-07T22:56:18;99813.56;;;3.98;71.92
75609;BME280;64194;51.044;13.780;2022-12-07T23:00:20;99823.94;;;4.01;71.90
75609;BME280;64194;51.044;13.780;2022-12-07T23:04:22;99821.34;;;3.99;71.62
75609;BME280;64194;51.044;13.780;2022-12-07T23:08:23;99807.56;;;3.94;71.66
75609;BME280;64194;51.044;13.780;2022-12-07T23:12:25;99821.34;;;3.99;71.57
75609;BME280;64194;51.044;13.780;2022-12-07T23:17:01;99823.22;;;3.97;71.34
75609;BME280;64194;51.044;13.780;2022-12-07T23:26:05;99817.00;;;3.78;71.98
75609;BME280;64194;51.044;13.780;2022-12-07T23:30:08;99803.81;;;3.79;72.47
75609;BME280;64194;51.044;13.780;2022-12-07T23:48:52;99795.53;;;3.89;71.57
75609;BME280;64194;51.044;13.780;2022-12-07T23:52:55;99802.75;;;3.84;71.59
75609;BME280;64194;51.044;13.780;2022-12-07T23:56:57;99795.88;;;3.81;71.59
